sensor_id;sensor_type;location;lat;lon;timestamp;pressure;altitude;pressure_sealevel;temperature;humidity
34177;BME280;20450;49.074;9.158;2023-02-28T00:00:01;100633.84;;;0.18;66.97
34177;BME280;20450;49.074;9.158;2023-02-28T00:02:30;100633.84;;;0.18;67.48
34177;BME280;20450;49.074;9.158;2023-02-28T00:04:57;100636.84;;;0.13;66.48
34177;BME280;20450;49.074;9.158;2023-02-28T00:07:25;100637.69;;;0.14;67.44
34177;BME280;20450;49.074;9.158;2023-02-28T00:09:52;100634.91;;;0.15;67.23
34177;BME280;20450;49.074;9.158;2023-02-28T00:12:19;100639.97;;;0.18;68.91
34177;BME280;20450;49.074;9.158;2023-02-28T00:14:45;100629.50;;;0.06;66.74
34177;BME280;20450;49.074;9.158;2023-02-28T00:17:12;100631.19;;;0.07;67.93
34177;BME280;20450;49.074;9.158;2023-02-28T00:19:39;100634.56;;;0.09;67.12
34177;BME280;20450;49.074;9.158;2023-02-28T00:22:06;100632.75;;;0.09;68.64
34177;BME280;20450;49.074;9.158;2023-02-28T00:24:34;100631.31;;;0.05;67.01
34177;BME280;20450;49.074;9.158;2023-02-28T00:27:01;100626.59;;;0.09;67.88
34177;BME280;20450;49.074;9.158;2023-02-28T00:29:28;100632.41;;;0.03;67.54
34177;BME280;20450;49.074;9.158;2023-02-28T00:31:55;100630.22;;;0.08;67.61
34177;BME280;20450;49.074;9.158;2023-02-28T00:34:22;100627.09;;;0.03;68.29
34177;BME280;20450;49.074;9.158;2023-02-28T00:36:49;100627.34;;;-0.01;66.87
34177;BME280;20450;49.074;9.158;2023-02-28T00:39:16;100634.47;;;-0.01;66.91
34177;BME280;20450;49.074;9.158;2023-02-28T00:41:45;100636.97;;;0.12;67.68
34177;BME280;20450;49.074;9.158;2023-02-28T00:44:13;100628.41;;;0.08;67.22
34177;BME280;20450;49.074;9.158;2023-02-28T00:46:40;100626.47;;;0.10;69.15
34177;BME280;20450;49.074;9.158;2023-02-28T00:49:06;100631.19;;;0.07;68.68
34177;BME280;20450;49.074;9.158;2023-02-28T00:51:35;100631.69;;;0.00;67.62
34177;BME280;20450;49.074;9.158;2023-02-28T00:54:01;100623.59;;;0.02;68.57
34177;BME280;20450;49.074;9.158;2023-02-28T00:56:28;100623.72;;;0.00;68.22
34177;BME280;20450;49.074;9.158;2023-02-28T00:58:57;100622.75;;;0.01;68.96
34177;BME280;20450;49.074;9.158;2023-02-28T01:01:24;100630.50;;;-0.07;68.51
34177;BME280;20450;49.074;9.158;2023-02-28T01:03:51;100624.13;;;-0.15;68.33
34177;BME280;20450;49.074;9.158;2023-02-28T01:06:18;100624.00;;;-0.14;69.98
34177;BME280;20450;49.074;9.158;2023-02-28T01:08:44;100624.00;;;-0.14;68.84
34177;BME280;20450;49.074;9.158;2023-02-28T01:11:16;100628.47;;;-0.14;68.93
34177;BME280;20450;49.074;9.158;2023-02-28T01:13:45;100616.75;;;-0.12;69.94
34177;BME280;20450;49.074;9.158;2023-02-28T01:16:16;100621.09;;;-0.22;69.04
34177;BME280;20450;49.074;9.158;2023-02-28T01:18:44;100618.34;;;-0.20;69.11
34177;BME280;20450;49.074;9.158;2023-02-28T01:21:13;100623.16;;;-0.25;69.42
34177;BME280;20450;49.074;9.158;2023-02-28T01:23:42;100619.56;;;-0.24;69.75
34177;BME280;20450;49.074;9.158;2023-02-28T01:26:11;100618.94;;;-0.28;69.62
34177;BME280;20450;49.074;9.158;2023-02-28T01:28:40;100619.69;;;-0.26;69.68
34177;BME280;20450;49.074;9.158;2023-02-28T01:31:08;100617.84;;;-0.25;69.43
34177;BME280;20450;49.074;9.158;2023-02-28T01:33:40;100624.38;;;-0.29;69.79
34177;BME280;20450;49.074;9.158;2023-02-28T01:36:11;100610.25;;;-0.30;70.17
34177;BME280;20450;49.074;9.158;2023-02-28T01:38:39;100614.13;;;-0.34;70.72
34177;BME280;20450;49.074;9.158;2023-02-28T01:41:08;100619.91;;;-0.40;70.57
34177;BME280;20450;49.074;9.158;2023-02-28T01:43:56;100620.53;;;-0.47;69.67
34177;BME280;20450;49.074;9.158;2023-02-28T01:46:25;100614.63;;;-0.40;70.73
34177;BME280;20450;49.074;9.158;2023-02-28T01:49:00;100615.59;;;-0.41;71.36
34177;BME280;20450;49.074;9.158;2023-02-28T01:51:35;100617.63;;;-0.44;70.29
34177;BME280;20450;49.074;9.158;2023-02-28T01:54:11;100602.44;;;-0.42;70.47
34177;BME280;20450;49.074;9.158;2023-02-28T01:56:44;100616.53;;;-0.42;71.41
34177;BME280;20450;49.074;9.158;2023-02-28T01:59:21;100604.72;;;-0.49;70.95
34177;BME280;20450;49.074;9.158;2023-02-28T02:01:51;100611.59;;;-0.46;70.84
34177;BME280;20450;49.074;9.158;2023-02-28T02:04:21;100609.94;;;-0.58;70.37
34177;BME280;20450;49.074;9.158;2023-02-28T02:06:52;100603.28;;;-0.53;71.49
34177;BME280;20450;49.074;9.158;2023-02-28T02:09:19;100611.00;;;-0.50;71.73
34177;BME280;20450;49.074;9.158;2023-02-28T02:11:47;100600.97;;;-0.46;72.28
34177;BME280;20450;49.074;9.158;2023-02-28T02:14:34;100590.63;;;-0.49;71.29
34177;BME280;20450;49.074;9.158;2023-02-28T02:17:21;100589.66;;;-0.48;71.23
34177;BME280;20450;49.074;9.158;2023-02-28T02:20:30;100596.88;;;-0.50;71.24
34177;BME280;20450;49.074;9.158;2023-02-28T02:26:41;100591.13;;;-0.55;71.80
34177;BME280;20450;49.074;9.158;2023-02-28T02:36:00;100592.19;;;-0.58;72.97
34177;BME280;20450;49.074;9.158;2023-02-28T02:38:37;100591.38;;;-0.58;71.46
34177;BME280;20450;49.074;9.158;2023-02-28T02:41:18;100576.88;;;-0.65;71.88
34177;BME280;20450;49.074;9.158;2023-02-28T02:43:53;100583.50;;;-0.71;71.79
34177;BME280;20450;49.074;9.158;2023-02-28T02:46:29;100589.56;;;-0.69;72.30
34177;BME280;20450;49.074;9.158;2023-02-28T02:49:00;100582.31;;;-0.67;73.19
34177;BME280;20450;49.074;9.158;2023-02-28T02:51:34;100583.75;;;-0.63;72.47
34177;BME280;20450;49.074;9.158;2023-02-28T02:54:08;100582.06;;;-0.64;72.18
34177;BME280;20450;49.074;9.158;2023-02-28T02:56:41;100581.59;;;-0.69;72.20
34177;BME280;20450;49.074;9.158;2023-02-28T02:59:16;100584.47;;;-0.61;71.87
34177;BME280;20450;49.074;9.158;2023-02-28T03:01:45;100580.16;;;-0.51;72.28
34177;BME280;20450;49.074;9.158;2023-02-28T03:04:16;100588.59;;;-0.57;71.76
34177;BME280;20450;49.074;9.158;2023-02-28T03:06:47;100585.44;;;-0.62;72.03
34177;BME280;20450;49.074;9.158;2023-02-28T03:09:17;100583.84;;;-0.53;72.22
34177;BME280;20450;49.074;9.158;2023-02-28T03:11:44;100580.38;;;-0.54;72.03
34177;BME280;20450;49.074;9.158;2023-02-28T03:14:26;100572.75;;;-0.47;73.10
34177;BME280;20450;49.074;9.158;2023-02-28T03:17:24;100569.41;;;-0.49;72.28
34177;BME280;20450;49.074;9.158;2023-02-28T03:20:12;100580.72;;;-0.47;72.08
34177;BME280;20450;49.074;9.158;2023-02-28T03:22:58;100572.31;;;-0.52;72.40
34177;BME280;20450;49.074;9.158;2023-02-28T03:25:39;100576.03;;;-0.44;71.78
34177;BME280;20450;49.074;9.158;2023-02-28T03:28:23;100570.22;;;-0.49;73.03
34177;BME280;20450;49.074;9.158;2023-02-28T03:31:02;100573.25;;;-0.53;72.20
34177;BME280;20450;49.074;9.158;2023-02-28T03:33:39;100573.84;;;-0.50;71.74
34177;BME280;20450;49.074;9.158;2023-02-28T03:36:13;100573.63;;;-0.47;71.99
34177;BME280;20450;49.074;9.158;2023-02-28T03:38:49;100569.41;;;-0.49;72.16
34177;BME280;20450;49.074;9.158;2023-02-28T03:41:22;100574.31;;;-0.45;72.20
34177;BME280;20450;49.074;9.158;2023-02-28T03:43:54;100574.06;;;-0.42;71.93
34177;BME280;20450;49.074;9.158;2023-02-28T03:46:27;100569.97;;;-0.46;72.03
34177;BME280;20450;49.074;9.158;2023-02-28T03:49:02;100580.34;;;-0.43;73.84
34177;BME280;20450;49.074;9.158;2023-02-28T03:51:40;100572.88;;;-0.38;71.55
34177;BME280;20450;49.074;9.158;2023-02-28T03:54:15;100578.31;;;-0.39;72.08
34177;BME280;20450;49.074;9.158;2023-02-28T03:56:48;100584.56;;;-0.40;72.95
34177;BME280;20450;49.074;9.158;2023-02-28T03:59:24;100583.38;;;-0.47;72.07
34177;BME280;20450;49.074;9.158;2023-02-28T04:01:56;100598.56;;;-0.38;72.63
34177;BME280;20450;49.074;9.158;2023-02-28T04:04:26;100584.56;;;-0.40;71.42
34177;BME280;20450;49.074;9.158;2023-02-28T04:07:01;100589.03;;;-0.41;73.43
34177;BME280;20450;49.074;9.158;2023-02-28T04:09:31;100595.66;;;-0.46;71.65
34177;BME280;20450;49.074;9.158;2023-02-28T04:11:58;100602.19;;;-0.50;72.28
34177;BME280;20450;49.074;9.158;2023-02-28T04:14:26;100594.84;;;-0.47;73.31
34177;BME280;20450;49.074;9.158;2023-02-28T04:16:53;100592.66;;;-0.42;71.25
34177;BME280;20450;49.074;9.158;2023-02-28T04:19:20;100592.19;;;-0.47;73.56
34177;BME280;20450;49.074;9.158;2023-02-28T04:21:48;100603.78;;;-0.48;71.95
34177;BME280;20450;49.074;9.158;2023-02-28T04:24:18;100595.44;;;-0.54;72.33
34177;BME280;20450;49.074;9.158;2023-02-28T04:26:50;100604.25;;;-0.43;73.07
34177;BME280;20450;49.074;9.158;2023-02-28T04:29:20;100599.50;;;-0.28;73.17
34177;BME280;20450;49.074;9.158;2023-02-28T04:31:48;100596.03;;;-0.29;71.30
34177;BME280;20450;49.074;9.158;2023-02-28T04:34:16;100591.41;;;-0.27;72.20
34177;BME280;20450;49.074;9.158;2023-02-28T04:36:43;100602.16;;;-0.28;71.91
34177;BME280;20450;49.074;9.158;2023-02-28T04:39:09;100597.63;;;-0.48;71.14
34177;BME280;20450;49.074;9.158;2023-02-28T04:41:36;100598.59;;;-0.49;70.97
34177;BME280;20450;49.074;9.158;2023-02-28T04:44:05;100601.47;;;-0.41;72.21
34177;BME280;20450;49.074;9.158;2023-02-28T04:46:32;100598.47;;;-0.48;72.10
34177;BME280;20450;49.074;9.158;2023-02-28T04:48:59;100594.13;;;-0.38;71.77
34177;BME280;20450;49.074;9.158;2023-02-28T04:51:26;100598.69;;;-0.40;71.17
34177;BME280;20450;49.074;9.158;2023-02-28T04:53:54;100587.47;;;-0.32;71.20
34177;BME280;20450;49.074;9.158;2023-02-28T04:56:22;100595.19;;;-0.29;72.01
34177;BME280;20450;49.074;9.158;2023-02-28T04:58:49;100598.69;;;-0.29;70.45
34177;BME280;20450;49.074;9.158;2023-02-28T05:01:23;100594.19;;;-0.28;70.73
34177;BME280;20450;49.074;9.158;2023-02-28T05:03:53;100595.66;;;-0.24;70.73
34177;BME280;20450;49.074;9.158;2023-02-28T05:06:22;100598.41;;;-0.15;71.55
34177;BME280;20450;49.074;9.158;2023-02-28T05:08:51;100596.50;;;-0.24;71.18
34177;BME280;20450;49.074;9.158;2023-02-28T05:11:20;100596.72;;;-0.27;70.65
34177;BME280;20450;49.074;9.158;2023-02-28T05:13:50;100599.88;;;-0.22;71.13
34177;BME280;20450;49.074;9.158;2023-02-28T05:16:19;100599.75;;;-0.20;71.32
34177;BME280;20450;49.074;9.158;2023-02-28T05:18:47;100596.72;;;-0.16;72.03
34177;BME280;20450;49.074;9.158;2023-02-28T05:21:26;100597.91;;;0.34;74.05
34177;BME280;20450;49.074;9.158;2023-02-28T05:23:56;100601.31;;;0.25;70.12
34177;BME280;20450;49.074;9.158;2023-02-28T05:26:24;100600.91;;;-0.02;69.79
34177;BME280;20450;49.074;9.158;2023-02-28T05:28:52;100597.56;;;-0.15;71.40
34177;BME280;20450;49.074;9.158;2023-02-28T05:31:20;100605.66;;;-0.17;70.93
34177;BME280;20450;49.074;9.158;2023-02-28T05:33:47;100598.44;;;-0.26;70.81
34177;BME280;20450;49.074;9.158;2023-02-28T05:36:14;100607.59;;;-0.19;70.96
34177;BME280;20450;49.074;9.158;2023-02-28T05:38:41;100603.72;;;-0.15;71.28
34177;BME280;20450;49.074;9.158;2023-02-28T05:41:09;100609.75;;;-0.13;72.33
34177;BME280;20450;49.074;9.158;2023-02-28T05:43:37;100615.91;;;-0.23;70.79
34177;BME280;20450;49.074;9.158;2023-02-28T05:46:05;100610.00;;;-0.16;71.69
34177;BME280;20450;49.074;9.158;2023-02-28T05:48:35;100608.06;;;-0.14;71.03
34177;BME280;20450;49.074;9.158;2023-02-28T05:51:03;100608.91;;;-0.13;70.31
34177;BME280;20450;49.074;9.158;2023-02-28T05:53:31;100608.31;;;-0.17;69.80
34177;BME280;20450;49.074;9.158;2023-02-28T05:55:59;100611.44;;;-0.12;69.99
34177;BME280;20450;49.074;9.158;2023-02-28T05:58:26;100618.94;;;-0.28;70.10
34177;BME280;20450;49.074;9.158;2023-02-28T06:00:54;100614.13;;;-0.34;69.82
34177;BME280;20450;49.074;9.158;2023-02-28T06:03:21;100613.63;;;-0.28;70.49
34177;BME280;20450;49.074;9.158;2023-02-28T06:05:49;100608.31;;;-0.17;71.71
34177;BME280;20450;49.074;9.158;2023-02-28T06:08:16;100609.53;;;-0.32;70.36
34177;BME280;20450;49.074;9.158;2023-02-28T06:10:43;100618.81;;;-0.26;71.13
34177;BME280;20450;49.074;9.158;2023-02-28T06:13:10;100614.56;;;-0.18;71.93
34177;BME280;20450;49.074;9.158;2023-02-28T06:15:36;100614.56;;;-0.18;70.59
34177;BME280;20450;49.074;9.158;2023-02-28T06:18:04;100623.06;;;-0.35;70.34
34177;BME280;20450;49.074;9.158;2023-02-28T06:20:31;100620.03;;;-0.30;71.46
34177;BME280;20450;49.074;9.158;2023-02-28T06:23:00;100629.94;;;-0.32;71.04
34177;BME280;20450;49.074;9.158;2023-02-28T06:25:27;100626.41;;;-0.22;71.58
34177;BME280;20450;49.074;9.158;2023-02-28T06:27:55;100627.50;;;-0.24;71.75
34177;BME280;20450;49.074;9.158;2023-02-28T06:30:22;100628.22;;;-0.22;71.12
34177;BME280;20450;49.074;9.158;2023-02-28T06:32:49;100633.19;;;-0.29;71.74
34177;BME280;20450;49.074;9.158;2023-02-28T06:35:16;100634.78;;;0.17;71.68
34177;BME280;20450;49.074;9.158;2023-02-28T06:37:43;100631.72;;;-0.11;70.59
34177;BME280;20450;49.074;9.158;2023-02-28T06:40:12;100648.97;;;-0.16;71.63
34177;BME280;20450;49.074;9.158;2023-02-28T06:42:39;100648.03;;;-0.26;70.79
34177;BME280;20450;49.074;9.158;2023-02-28T06:45:07;100643.28;;;-0.12;71.19
34177;BME280;20450;49.074;9.158;2023-02-28T06:47:35;100652.34;;;-0.25;70.63
34177;BME280;20450;49.074;9.158;2023-02-28T06:50:04;100647.78;;;-0.12;70.77
34177;BME280;20450;49.074;9.158;2023-02-28T06:52:31;100659.13;;;-0.21;70.01
34177;BME280;20450;49.074;9.158;2023-02-28T06:54:59;100660.06;;;-0.11;70.28
34177;BME280;20450;49.074;9.158;2023-02-28T06:57:30;100660.44;;;-0.05;69.84
34177;BME280;20450;49.074;9.158;2023-02-28T06:59:58;100665.75;;;-0.05;70.03
34177;BME280;20450;49.074;9.158;2023-02-28T07:02:25;100665.50;;;-0.02;69.02
34177;BME280;20450;49.074;9.158;2023-02-28T07:04:52;100667.41;;;0.08;70.63
34177;BME280;20450;49.074;9.158;2023-02-28T07:07:20;100671.25;;;0.15;70.02
34177;BME280;20450;49.074;9.158;2023-02-28T07:09:47;100681.16;;;0.24;69.27
34177;BME280;20450;49.074;9.158;2023-02-28T07:12:14;100673.06;;;0.03;69.82
34177;BME280;20450;49.074;9.158;2023-02-28T07:14:42;100680.66;;;0.30;68.71
34177;BME280;20450;49.074;9.158;2023-02-28T07:17:09;100674.00;;;0.35;68.07
34177;BME280;20450;49.074;9.158;2023-02-28T07:19:37;100678.25;;;1.31;64.28
34177;BME280;20450;49.074;9.158;2023-02-28T07:22:04;100671.13;;;1.61;65.31
34177;BME280;20450;49.074;9.158;2023-02-28T07:24:32;100664.09;;;2.68;61.07
34177;BME280;20450;49.074;9.158;2023-02-28T07:26:58;100677.47;;;2.10;61.41
34177;BME280;20450;49.074;9.158;2023-02-28T07:29:26;100678.84;;;2.82;61.21
34177;BME280;20450;49.074;9.158;2023-02-28T07:31:54;100669.91;;;3.38;58.22
34177;BME280;20450;49.074;9.158;2023-02-28T07:34:22;100674.91;;;2.95;58.80
34177;BME280;20450;49.074;9.158;2023-02-28T07:36:49;100674.28;;;2.16;60.70
34177;BME280;20450;49.074;9.158;2023-02-28T07:39:19;100677.66;;;2.27;61.54
34177;BME280;20450;49.074;9.158;2023-02-28T07:41:47;100678.66;;;1.26;63.98
34177;BME280;20450;49.074;9.158;2023-02-28T07:44:14;100678.66;;;2.36;61.86
34177;BME280;20450;49.074;9.158;2023-02-28T07:46:41;100678.97;;;3.18;57.62
34177;BME280;20450;49.074;9.158;2023-02-28T07:49:10;100674.91;;;3.05;57.21
34177;BME280;20450;49.074;9.158;2023-02-28T07:51:39;100679.22;;;3.25;57.71
34177;BME280;20450;49.074;9.158;2023-02-28T07:54:09;100677.34;;;3.54;55.65
34177;BME280;20450;49.074;9.158;2023-02-28T07:56:36;100680.06;;;4.08;55.73
34177;BME280;20450;49.074;9.158;2023-02-28T07:59:03;100686.19;;;3.54;55.22
34177;BME280;20450;49.074;9.158;2023-02-28T08:01:30;100679.78;;;3.74;55.70
34177;BME280;20450;49.074;9.158;2023-02-28T08:03:57;100673.47;;;4.74;52.86
34177;BME280;20450;49.074;9.158;2023-02-28T08:06:26;100681.25;;;5.03;50.74
34177;BME280;20450;49.074;9.158;2023-02-28T08:08:53;100677.91;;;3.84;54.45
34177;BME280;20450;49.074;9.158;2023-02-28T08:11:20;100681.97;;;3.88;54.78
34177;BME280;20450;49.074;9.158;2023-02-28T08:13:47;100680.06;;;4.35;53.41
34177;BME280;20450;49.074;9.158;2023-02-28T08:16:14;100683.78;;;3.51;55.03
34177;BME280;20450;49.074;9.158;2023-02-28T08:18:41;100678.41;;;3.70;54.70
34177;BME280;20450;49.074;9.158;2023-02-28T08:21:09;100686.94;;;3.83;53.71
34177;BME280;20450;49.074;9.158;2023-02-28T08:23:38;100685.22;;;3.46;55.22
34177;BME280;20450;49.074;9.158;2023-02-28T08:26:05;100689.78;;;2.60;58.10
34177;BME280;20450;49.074;9.158;2023-02-28T08:28:33;100681.06;;;3.24;56.16
34177;BME280;20450;49.074;9.158;2023-02-28T08:30:59;100685.66;;;3.87;53.66
34177;BME280;20450;49.074;9.158;2023-02-28T08:33:27;100665.69;;;4.36;53.17
34177;BME280;20450;49.074;9.158;2023-02-28T08:35:54;100680.59;;;3.29;55.37
34177;BME280;20450;49.074;9.158;2023-02-28T08:38:22;100673.16;;;3.78;54.09
34177;BME280;20450;49.074;9.158;2023-02-28T08:40:57;100690.63;;;2.98;55.93
34177;BME280;20450;49.074;9.158;2023-02-28T08:43:25;100673.56;;;3.83;55.18
34177;BME280;20450;49.074;9.158;2023-02-28T08:45:52;100677.72;;;3.59;54.80
34177;BME280;20450;49.074;9.158;2023-02-28T08:48:19;100675.19;;;4.21;53.85
34177;BME280;20450;49.074;9.158;2023-02-28T08:50:55;100686.00;;;2.72;56.29
34177;BME280;20450;49.074;9.158;2023-02-28T08:53:33;100678.41;;;2.96;55.91
34177;BME280;20450;49.074;9.158;2023-02-28T08:56:04;100679.66;;;2.73;56.94
34177;BME280;20450;49.074;9.158;2023-02-28T08:58:32;100693.81;;;1.86;59.20
34177;BME280;20450;49.074;9.158;2023-02-28T09:01:00;100685.38;;;2.30;58.58
34177;BME280;20450;49.074;9.158;2023-02-28T09:03:27;100685.72;;;2.75;57.26
34177;BME280;20450;49.074;9.158;2023-02-28T09:05:55;100680.09;;;2.97;55.97
34177;BME280;20450;49.074;9.158;2023-02-28T09:08:24;100669.56;;;3.70;55.21
34177;BME280;20450;49.074;9.158;2023-02-28T09:10:51;100673.06;;;3.70;53.76
34177;BME280;20450;49.074;9.158;2023-02-28T09:13:20;100678.81;;;2.44;56.55
34177;BME280;20450;49.074;9.158;2023-02-28T09:15:47;100675.59;;;2.59;56.55
34177;BME280;20450;49.074;9.158;2023-02-28T09:18:14;100676.31;;;2.90;56.11
34177;BME280;20450;49.074;9.158;2023-02-28T09:20:42;100676.19;;;3.56;53.78
34177;BME280;20450;49.074;9.158;2023-02-28T09:23:11;100679.13;;;2.69;55.29
34177;BME280;20450;49.074;9.158;2023-02-28T09:25:45;100672.94;;;2.69;56.01
34177;BME280;20450;49.074;9.158;2023-02-28T09:28:13;100676.44;;;3.07;54.77
34177;BME280;20450;49.074;9.158;2023-02-28T09:30:41;100661.97;;;3.65;54.13
34177;BME280;20450;49.074;9.158;2023-02-28T09:33:10;100673.16;;;4.15;51.56
34177;BME280;20450;49.074;9.158;2023-02-28T09:35:37;100672.53;;;5.01;49.62
34177;BME280;20450;49.074;9.158;2023-02-28T09:38:04;100665.94;;;3.88;51.96
34177;BME280;20450;49.074;9.158;2023-02-28T09:40:39;100668.47;;;3.90;52.37
34177;BME280;20450;49.074;9.158;2023-02-28T09:43:22;100669.94;;;3.75;53.93
34177;BME280;20450;49.074;9.158;2023-02-28T09:46:00;100655.53;;;4.40;51.31
34177;BME280;20450;49.074;9.158;2023-02-28T09:48:36;100669.41;;;4.26;50.93
34177;BME280;20450;49.074;9.158;2023-02-28T09:51:21;100679.63;;;4.57;51.40
34177;BME280;20450;49.074;9.158;2023-02-28T09:53:57;100666.41;;;4.73;50.51
34177;BME280;20450;49.074;9.158;2023-02-28T09:56:31;100687.00;;;3.64;52.10
34177;BME280;20450;49.074;9.158;2023-02-28T09:59:06;100683.72;;;2.58;56.01
34177;BME280;20450;49.074;9.158;2023-02-28T10:01:47;100674.91;;;2.67;56.97
34177;BME280;20450;49.074;9.158;2023-02-28T10:04:37;100683.06;;;3.03;55.99
34177;BME280;20450;49.074;9.158;2023-02-28T10:07:27;100684.47;;;2.88;56.35
34177;BME280;20450;49.074;9.158;2023-02-28T10:10:20;100686.97;;;2.80;57.47
34177;BME280;20450;49.074;9.158;2023-02-28T10:12:52;100689.22;;;2.66;56.69
34177;BME280;20450;49.074;9.158;2023-02-28T10:15:25;100685.03;;;2.82;56.72
34177;BME280;20450;49.074;9.158;2023-02-28T10:18:01;100685.44;;;2.68;56.36
34177;BME280;20450;49.074;9.158;2023-02-28T10:20:38;100686.41;;;2.86;56.36
34177;BME280;20450;49.074;9.158;2023-02-28T10:23:13;100689.91;;;2.49;56.64
34177;BME280;20450;49.074;9.158;2023-02-28T10:25:48;100694.00;;;2.81;56.42
34177;BME280;20450;49.074;9.158;2023-02-28T10:28:20;100690.09;;;2.85;55.92
34177;BME280;20450;49.074;9.158;2023-02-28T10:30:48;100700.56;;;2.49;56.59
34177;BME280;20450;49.074;9.158;2023-02-28T10:33:22;100701.59;;;2.95;56.26
34177;BME280;20450;49.074;9.158;2023-02-28T10:35:52;100699.91;;;3.23;54.94
34177;BME280;20450;49.074;9.158;2023-02-28T10:38:21;100699.00;;;3.32;55.72
34177;BME280;20450;49.074;9.158;2023-02-28T10:40:50;100693.31;;;3.08;55.43
34177;BME280;20450;49.074;9.158;2023-02-28T10:43:22;100685.41;;;4.08;53.05
34177;BME280;20450;49.074;9.158;2023-02-28T10:45:56;100674.66;;;4.80;52.24
34177;BME280;20450;49.074;9.158;2023-02-28T10:48:32;100697.53;;;4.57;50.64
34177;BME280;20450;49.074;9.158;2023-02-28T10:51:04;100679.34;;;4.33;52.70
34177;BME280;20450;49.074;9.158;2023-02-28T10:53:35;100691.00;;;3.78;53.55
34177;BME280;20450;49.074;9.158;2023-02-28T10:56:26;100689.03;;;3.43;54.61
34177;BME280;20450;49.074;9.158;2023-02-28T10:58:55;100694.75;;;3.58;54.07
34177;BME280;20450;49.074;9.158;2023-02-28T11:01:25;100692.97;;;3.39;55.20
34177;BME280;20450;49.074;9.158;2023-02-28T11:04:03;100677.78;;;3.49;54.83
34177;BME280;20450;49.074;9.158;2023-02-28T11:06:44;100680.69;;;3.56;55.61
34177;BME280;20450;49.074;9.158;2023-02-28T11:09:19;100673.69;;;3.45;54.83
34177;BME280;20450;49.074;9.158;2023-02-28T11:11:51;100656.88;;;3.99;54.13
34177;BME280;20450;49.074;9.158;2023-02-28T11:14:21;100661.72;;;4.93;51.39
34177;BME280;20450;49.074;9.158;2023-02-28T11:16:52;100653.97;;;5.25;50.01
34177;BME280;20450;49.074;9.158;2023-02-28T11:19:25;100645.75;;;7.25;46.80
34177;BME280;20450;49.074;9.158;2023-02-28T11:21:57;100657.25;;;4.14;50.62
34177;BME280;20450;49.074;9.158;2023-02-28T11:24:30;100659.09;;;4.31;52.18
34177;BME280;20450;49.074;9.158;2023-02-28T11:27:02;100642.31;;;6.35;48.97
34177;BME280;20450;49.074;9.158;2023-02-28T11:29:31;100640.41;;;6.19;45.96
34177;BME280;20450;49.074;9.158;2023-02-28T11:32:04;100660.38;;;5.32;47.48
34177;BME280;20450;49.074;9.158;2023-02-28T11:34:42;100652.09;;;4.30;49.32
34177;BME280;20450;49.074;9.158;2023-02-28T11:37:12;100657.63;;;5.24;48.48
34177;BME280;20450;49.074;9.158;2023-02-28T11:39:42;100652.38;;;5.65;46.65
34177;BME280;20450;49.074;9.158;2023-02-28T11:42:36;100648.41;;;6.03;46.42
34177;BME280;20450;49.074;9.158;2023-02-28T11:45:29;100650.84;;;5.29;47.42
34177;BME280;20450;49.074;9.158;2023-02-28T11:48:16;100647.78;;;6.09;45.66
34177;BME280;20450;49.074;9.158;2023-02-28T11:51:06;100664.72;;;5.33;46.75
34177;BME280;20450;49.074;9.158;2023-02-28T11:53:58;100650.13;;;7.18;44.33
34177;BME280;20450;49.074;9.158;2023-02-28T11:56:41;100655.09;;;4.44;48.57
34177;BME280;20450;49.074;9.158;2023-02-28T11:59:27;100635.84;;;4.76;48.65
34177;BME280;20450;49.074;9.158;2023-02-28T12:02:19;100630.53;;;5.52;48.19
34177;BME280;20450;49.074;9.158;2023-02-28T12:07:55;100649.13;;;4.68;49.35
34177;BME280;20450;49.074;9.158;2023-02-28T12:10:37;100645.28;;;4.35;49.92
34177;BME280;20450;49.074;9.158;2023-02-28T12:13:17;100655.47;;;4.67;49.90
34177;BME280;20450;49.074;9.158;2023-02-28T12:16:01;100644.47;;;4.70;49.43
34177;BME280;20450;49.074;9.158;2023-02-28T12:18:57;100646.00;;;4.72;48.34
34177;BME280;20450;49.074;9.158;2023-02-28T12:21:44;100635.06;;;4.83;48.98
34177;BME280;20450;49.074;9.158;2023-02-28T12:24:38;100644.63;;;4.51;49.54
34177;BME280;20450;49.074;9.158;2023-02-28T12:27:28;100637.75;;;4.66;50.00
34177;BME280;20450;49.074;9.158;2023-02-28T12:30:03;100630.63;;;4.74;49.70
34177;BME280;20450;49.074;9.158;2023-02-28T12:32:42;100624.78;;;4.96;49.45
34177;BME280;20450;49.074;9.158;2023-02-28T12:35:16;100638.94;;;4.89;48.98
34177;BME280;20450;49.074;9.158;2023-02-28T12:37:52;100624.78;;;5.39;48.74
34177;BME280;20450;49.074;9.158;2023-02-28T12:40:33;100636.66;;;4.76;49.34
34177;BME280;20450;49.074;9.158;2023-02-28T12:43:12;100625.88;;;5.29;50.86
34177;BME280;20450;49.074;9.158;2023-02-28T12:45:46;100623.09;;;5.72;47.44
34177;BME280;20450;49.074;9.158;2023-02-28T12:48:22;100621.41;;;5.12;49.04
34177;BME280;20450;49.074;9.158;2023-02-28T12:50:53;100610.22;;;4.91;49.65
34177;BME280;20450;49.074;9.158;2023-02-28T12:53:25;100609.31;;;5.33;48.92
34177;BME280;20450;49.074;9.158;2023-02-28T12:56:12;100593.78;;;6.04;48.68
34177;BME280;20450;49.074;9.158;2023-02-28T12:58:47;100617.28;;;5.51;49.06
34177;BME280;20450;49.074;9.158;2023-02-28T13:01:39;100612.25;;;5.22;48.98
34177;BME280;20450;49.074;9.158;2023-02-28T13:04:46;100601.56;;;4.97;49.58
34177;BME280;20450;49.074;9.158;2023-02-28T13:08:59;100618.16;;;4.83;49.61
34177;BME280;20450;49.074;9.158;2023-02-28T13:11:33;100606.00;;;4.71;49.30
34177;BME280;20450;49.074;9.158;2023-02-28T13:14:19;100608.75;;;4.79;49.71
34177;BME280;20450;49.074;9.158;2023-02-28T13:17:11;100601.47;;;4.89;50.86
34177;BME280;20450;49.074;9.158;2023-02-28T13:19:46;100609.34;;;4.90;50.14
34177;BME280;20450;49.074;9.158;2023-02-28T13:22:38;100608.84;;;4.52;50.72
34177;BME280;20450;49.074;9.158;2023-02-28T13:32:30;100603.50;;;5.12;50.29
34177;BME280;20450;49.074;9.158;2023-02-28T13:38:32;100596.19;;;4.97;50.08
34177;BME280;20450;49.074;9.158;2023-02-28T13:44:11;100607.34;;;5.10;49.02
34177;BME280;20450;49.074;9.158;2023-02-28T13:47:20;100596.69;;;5.00;49.89
34177;BME280;20450;49.074;9.158;2023-02-28T13:49:52;100595.94;;;5.08;49.84